sensor_id;sensor_type;location;lat;lon;timestamp;P1;P2;P0
44871;PMS7003;30602;51.060;17.226;2022-08-19T00:02:09;25;21;18
44871;PMS7003;30602;51.060;17.226;2022-08-19T00:05:37;22;20;16
44871;PMS7003;30602;51.060;17.226;2022-08-19T00:13:41;22;21;16
44871;PMS7003;30602;51.060;17.226;2022-08-19T00:17:14;21;20;16
44871;PMS7003;30602;51.060;17.226;2022-08-19T00:20:42;21;18;15
44871;PMS7003;30602;51.060;17.226;2022-08-19T00:24:06;20;20;16
44871;PMS7003;30602;51.060;17.226;2022-08-19T00:27:51;20;18;16
44871;PMS7003;30602;51.060;17.226;2022-08-19T00:31:04;20;19;16
44871;PMS7003;30602;51.060;17.226;2022-08-19T00:34:48;20;18;16
44871;PMS7003;30602;51.060;17.226;2022-08-19T00:38:56;21;19;14
44871;PMS7003;30602;51.060;17.226;2022-08-19T00:42:37;20;19;15
44871;PMS7003;30602;51.060;17.226;2022-08-19T00:46:22;22;21;17
44871;PMS7003;30602;51.060;17.226;2022-08-19T00:49:50;18;17;15
44871;PMS7003;30602;51.060;17.226;2022-08-19T00:53:06;21;20;15
44871;PMS7003;30602;51.060;17.226;2022-08-19T00:56:33;22;20;14
44871;PMS7003;30602;51.060;17.226;2022-08-19T00:59:44;20;17;15
44871;PMS7003;30602;51.060;17.226;2022-08-19T01:03:58;24;18;15
44871;PMS7003;30602;51.060;17.226;2022-08-19T01:08:04;28;26;19
44871;PMS7003;30602;51.060;17.226;2022-08-19T01:11:22;22;19;14
44871;PMS7003;30602;51.060;17.226;2022-08-19T01:15:17;21;20;16
44871;PMS7003;30602;51.060;17.226;2022-08-19T01:18:35;19;19;16
44871;PMS7003;30602;51.060;17.226;2022-08-19T01:21:57;21;20;16
44871;PMS7003;30602;51.060;17.226;2022-08-19T01:25:48;21;19;17
44871;PMS7003;30602;51.060;17.226;2022-08-19T01:28:59;22;20;16
44871;PMS7003;30602;51.060;17.226;2022-08-19T01:32:39;23;19;15
44871;PMS7003;30602;51.060;17.226;2022-08-19T01:39:42;22;22;16
44871;PMS7003;30602;51.060;17.226;2022-08-19T01:43:02;19;19;15
44871;PMS7003;30602;51.060;17.226;2022-08-19T01:46:17;21;19;15
44871;PMS7003;30602;51.060;17.226;2022-08-19T01:49:48;22;20;16
44871;PMS7003;30602;51.060;17.226;2022-08-19T01:53:05;22;20;15
44871;PMS7003;30602;51.060;17.226;2022-08-19T01:56:37;24;22;16
44871;PMS7003;30602;51.060;17.226;2022-08-19T01:59:47;22;20;15
44871;PMS7003;30602;51.060;17.226;2022-08-19T02:03:08;18;17;15
44871;PMS7003;30602;51.060;17.226;2022-08-19T02:06:30;20;19;15
44871;PMS7003;30602;51.060;17.226;2022-08-19T02:10:04;21;19;16
44871;PMS7003;30602;51.060;17.226;2022-08-19T02:13:14;20;20;17
44871;PMS7003;30602;51.060;17.226;2022-08-19T02:16:45;25;21;17
44871;PMS7003;30602;51.060;17.226;2022-08-19T02:20:16;25;22;18
44871;PMS7003;30602;51.060;17.226;2022-08-19T02:23:59;20;19;15
44871;PMS7003;30602;51.060;17.226;2022-08-19T02:27:28;22;21;17
44871;PMS7003;30602;51.060;17.226;2022-08-19T02:31:02;18;18;15
44871;PMS7003;30602;51.060;17.226;2022-08-19T02:34:49;23;22;17
44871;PMS7003;30602;51.060;17.226;2022-08-19T02:37:58;24;23;17
44871;PMS7003;30602;51.060;17.226;2022-08-19T02:41:37;22;22;16
44871;PMS7003;30602;51.060;17.226;2022-08-19T02:45:15;24;23;16
44871;PMS7003;30602;51.060;17.226;2022-08-19T02:48:45;21;21;16
44871;PMS7003;30602;51.060;17.226;2022-08-19T02:52:18;27;23;18
44871;PMS7003;30602;51.060;17.226;2022-08-19T02:55:53;25;24;18
44871;PMS7003;30602;51.060;17.226;2022-08-19T02:59:29;25;24;17
44871;PMS7003;30602;51.060;17.226;2022-08-19T03:02:42;29;23;17
44871;PMS7003;30602;51.060;17.226;2022-08-19T03:06:07;23;20;16
44871;PMS7003;30602;51.060;17.226;2022-08-19T03:09:22;24;21;17
44871;PMS7003;30602;51.060;17.226;2022-08-19T03:13:16;23;23;17
44871;PMS7003;30602;51.060;17.226;2022-08-19T03:16:49;25;24;17
44871;PMS7003;30602;51.060;17.226;2022-08-19T03:20:24;24;22;16
44871;PMS7003;30602;51.060;17.226;2022-08-19T03:24:11;25;22;16
44871;PMS7003;30602;51.060;17.226;2022-08-19T03:27:47;26;23;16
44871;PMS7003;30602;51.060;17.226;2022-08-19T03:31:21;23;21;16
44871;PMS7003;30602;51.060;17.226;2022-08-19T03:34:53;26;24;19
44871;PMS7003;30602;51.060;17.226;2022-08-19T03:38:28;28;24;17
44871;PMS7003;30602;51.060;17.226;2022-08-19T03:42:15;28;26;19
44871;PMS7003;30602;51.060;17.226;2022-08-19T03:45:48;28;26;18
44871;PMS7003;30602;51.060;17.226;2022-08-19T03:49:32;32;25;20
44871;PMS7003;30602;51.060;17.226;2022-08-19T03:53:02;27;23;19
44871;PMS7003;30602;51.060;17.226;2022-08-19T03:56:14;34;27;19
44871;PMS7003;30602;51.060;17.226;2022-08-19T03:59:42;29;27;18
44871;PMS7003;30602;51.060;17.226;2022-08-19T04:02:56;31;27;19
44871;PMS7003;30602;51.060;17.226;2022-08-19T04:06:14;29;25;20
44871;PMS7003;30602;51.060;17.226;2022-08-19T04:09:54;32;29;20
44871;PMS7003;30602;51.060;17.226;2022-08-19T04:13:41;31;27;18
44871;PMS7003;30602;51.060;17.226;2022-08-19T04:17:35;27;26;20
44871;PMS7003;30602;51.060;17.226;2022-08-19T04:24:38;31;26;20
44871;PMS7003;30602;51.060;17.226;2022-08-19T04:28:40;28;28;21
44871;PMS7003;30602;51.060;17.226;2022-08-19T04:31:52;34;30;22
44871;PMS7003;30602;51.060;17.226;2022-08-19T04:35:48;31;28;21
44871;PMS7003;30602;51.060;17.226;2022-08-19T04:39:23;32;28;21
44871;PMS7003;30602;51.060;17.226;2022-08-19T04:42:50;28;28;19
44871;PMS7003;30602;51.060;17.226;2022-08-19T04:49:51;31;27;21
44871;PMS7003;30602;51.060;17.226;2022-08-19T04:53:02;28;25;19
44871;PMS7003;30602;51.060;17.226;2022-08-19T04:56:20;29;28;20
44871;PMS7003;30602;51.060;17.226;2022-08-19T04:59:55;35;30;22
44871;PMS7003;30602;51.060;17.226;2022-08-19T05:03:11;32;29;21
44871;PMS7003;30602;51.060;17.226;2022-08-19T05:06:50;30;28;21
44871;PMS7003;30602;51.060;17.226;2022-08-19T05:10:01;30;28;21
44871;PMS7003;30602;51.060;17.226;2022-08-19T05:13:29;33;32;21
44871;PMS7003;30602;51.060;17.226;2022-08-19T05:17:01;33;29;21
44871;PMS7003;30602;51.060;17.226;2022-08-19T05:20:30;31;29;20
44871;PMS7003;30602;51.060;17.226;2022-08-19T05:24:01;30;29;21
44871;PMS7003;30602;51.060;17.226;2022-08-19T05:27:08;30;28;21
44871;PMS7003;30602;51.060;17.226;2022-08-19T05:30:25;33;29;20
44871;PMS7003;30602;51.060;17.226;2022-08-19T05:33:39;32;29;21
44871;PMS7003;30602;51.060;17.226;2022-08-19T05:36:49;29;28;21
44871;PMS7003;30602;51.060;17.226;2022-08-19T05:44:04;31;29;22
44871;PMS7003;30602;51.060;17.226;2022-08-19T05:47:38;32;28;20
44871;PMS7003;30602;51.060;17.226;2022-08-19T05:51:15;31;28;19
44871;PMS7003;30602;51.060;17.226;2022-08-19T05:54:47;31;28;21
44871;PMS7003;30602;51.060;17.226;2022-08-19T06:02:37;33;30;22
44871;PMS7003;30602;51.060;17.226;2022-08-19T06:05:56;30;27;20
44871;PMS7003;30602;51.060;17.226;2022-08-19T06:09:06;30;26;20
44871;PMS7003;30602;51.060;17.226;2022-08-19T06:13:03;29;28;20
44871;PMS7003;30602;51.060;17.226;2022-08-19T06:16:45;33;30;22
44871;PMS7003;30602;51.060;17.226;2022-08-19T06:20:01;35;30;21
44871;PMS7003;30602;51.060;17.226;2022-08-19T06:23:57;29;28;21
44871;PMS7003;30602;51.060;17.226;2022-08-19T06:27:29;30;29;19
44871;PMS7003;30602;51.060;17.226;2022-08-19T06:30:44;31;26;19
44871;PMS7003;30602;51.060;17.226;2022-08-19T06:34:27;31;27;19
44871;PMS7003;30602;51.060;17.226;2022-08-19T06:37:42;31;28;19
44871;PMS7003;30602;51.060;17.226;2022-08-19T06:41:15;28;26;19
44871;PMS7003;30602;51.060;17.226;2022-08-19T06:46:10;32;28;20
44871;PMS7003;30602;51.060;17.226;2022-08-19T06:49:48;31;29;21
44871;PMS7003;30602;51.060;17.226;2022-08-19T06:53:25;32;28;20
44871;PMS7003;30602;51.060;17.226;2022-08-19T06:57:04;36;26;20
44871;PMS7003;30602;51.060;17.226;2022-08-19T07:00:49;29;26;20
44871;PMS7003;30602;51.060;17.226;2022-08-19T07:04:23;29;27;21
44871;PMS7003;30602;51.060;17.226;2022-08-19T07:07:46;24;24;20
44871;PMS7003;30602;51.060;17.226;2022-08-19T07:11:28;26;23;18
44871;PMS7003;30602;51.060;17.226;2022-08-19T07:14:44;24;22;17
44871;PMS7003;30602;51.060;17.226;2022-08-19T07:18:21;20;18;15
44871;PMS7003;30602;51.060;17.226;2022-08-19T07:21:35;21;20;16
44871;PMS7003;30602;51.060;17.226;2022-08-19T07:24:55;21;20;16
44871;PMS7003;30602;51.060;17.226;2022-08-19T07:28:26;21;20;16
44871;PMS7003;30602;51.060;17.226;2022-08-19T07:31:44;23;20;17
44871;PMS7003;30602;51.060;17.226;2022-08-19T07:34:58;22;20;17
44871;PMS7003;30602;51.060;17.226;2022-08-19T07:38:10;20;19;16
44871;PMS7003;30602;51.060;17.226;2022-08-19T07:41:32;21;21;16
44871;PMS7003;30602;51.060;17.226;2022-08-19T07:44:44;20;19;15
44871;PMS7003;30602;51.060;17.226;2022-08-19T07:48:13;18;17;15
44871;PMS7003;30602;51.060;17.226;2022-08-19T07:55:26;16;15;13
44871;PMS7003;30602;51.060;17.226;2022-08-19T07:58:35;21;19;16
44871;PMS7003;30602;51.060;17.226;2022-08-19T08:02:23;20;18;16
44871;PMS7003;30602;51.060;17.226;2022-08-19T08:06:27;19;17;14
44871;PMS7003;30602;51.060;17.226;2022-08-19T08:09:55;19;19;15
44871;PMS7003;30602;51.060;17.226;2022-08-19T08:13:07;18;16;14
44871;PMS7003;30602;51.060;17.226;2022-08-19T08:16:41;18;16;14
44871;PMS7003;30602;51.060;17.226;2022-08-19T08:19:56;19;18;14
44871;PMS7003;30602;51.060;17.226;2022-08-19T08:23:39;19;18;14
44871;PMS7003;30602;51.060;17.226;2022-08-19T08:26:51;16;16;14
44871;PMS7003;30602;51.060;17.226;2022-08-19T08:30:53;15;14;12
44871;PMS7003;30602;51.060;17.226;2022-08-19T08:34:37;15;15;13
44871;PMS7003;30602;51.060;17.226;2022-08-19T08:37:48;18;16;13
44871;PMS7003;30602;51.060;17.226;2022-08-19T08:41:30;20;17;13
44871;PMS7003;30602;51.060;17.226;2022-08-19T08:44:56;18;16;14
44871;PMS7003;30602;51.060;17.226;2022-08-19T08:51:52;19;18;15
44871;PMS7003;30602;51.060;17.226;2022-08-19T08:55:53;18;18;15
44871;PMS7003;30602;51.060;17.226;2022-08-19T08:59:29;18;15;13
44871;PMS7003;30602;51.060;17.226;2022-08-19T09:03:06;14;14;12
44871;PMS7003;30602;51.060;17.226;2022-08-19T09:06:48;16;16;13
44871;PMS7003;30602;51.060;17.226;2022-08-19T09:17:21;16;15;13
44871;PMS7003;30602;51.060;17.226;2022-08-19T09:20:40;13;13;11
44871;PMS7003;30602;51.060;17.226;2022-08-19T09:24:28;14;14;12
44871;PMS7003;30602;51.060;17.226;2022-08-19T09:27:35;16;13;11
44871;PMS7003;30602;51.060;17.226;2022-08-19T09:31:13;13;13;11
44871;PMS7003;30602;51.060;17.226;2022-08-19T09:34:31;14;14;11
44871;PMS7003;30602;51.060;17.226;2022-08-19T09:37:47;16;13;10
44871;PMS7003;30602;51.060;17.226;2022-08-19T09:40:54;14;12;11
44871;PMS7003;30602;51.060;17.226;2022-08-19T09:44:36;13;13;11
44871;PMS7003;30602;51.060;17.226;2022-08-19T09:48:21;17;15;12
44871;PMS7003;30602;51.060;17.226;2022-08-19T09:52:05;17;15;12
44871;PMS7003;30602;51.060;17.226;2022-08-19T09:55:42;15;14;11
44871;PMS7003;30602;51.060;17.226;2022-08-19T09:58:53;13;11;10
44871;PMS7003;30602;51.060;17.226;2022-08-19T10:02:25;13;13;11
44871;PMS7003;30602;51.060;17.226;2022-08-19T10:05:48;14;14;11
44871;PMS7003;30602;51.060;17.226;2022-08-19T10:08:56;13;12;10
44871;PMS7003;30602;51.060;17.226;2022-08-19T10:12:27;13;12;10
44871;PMS7003;30602;51.060;17.226;2022-08-19T10:19:23;13;12;10
44871;PMS7003;30602;51.060;17.226;2022-08-19T10:22:34;11;11;10
44871;PMS7003;30602;51.060;17.226;2022-08-19T10:29:56;12;11;10
44871;PMS7003;30602;51.060;17.226;2022-08-19T10:33:27;15;13;11
44871;PMS7003;30602;51.060;17.226;2022-08-19T10:37:33;13;12;10
44871;PMS7003;30602;51.060;17.226;2022-08-19T10:41:09;12;12;10
44871;PMS7003;30602;51.060;17.226;2022-08-19T10:44:55;13;12;10
44871;PMS7003;30602;51.060;17.226;2022-08-19T10:48:28;13;12;10
44871;PMS7003;30602;51.060;17.226;2022-08-19T10:52:09;12;11;10
44871;PMS7003;30602;51.060;17.226;2022-08-19T10:55:48;12;12;10
44871;PMS7003;30602;51.060;17.226;2022-08-19T10:59:33;10;10;9
44871;PMS7003;30602;51.060;17.226;2022-08-19T11:03:39;13;11;9
44871;PMS7003;30602;51.060;17.226;2022-08-19T11:07:11;12;12;8
44871;PMS7003;30602;51.060;17.226;2022-08-19T11:10:46;11;11;9
44871;PMS7003;30602;51.060;17.226;2022-08-19T11:13:57;15;12;10
44871;PMS7003;30602;51.060;17.226;2022-08-19T11:17:06;13;11;10
44871;PMS7003;30602;51.060;17.226;2022-08-19T11:20:19;12;10;9
44871;PMS7003;30602;51.060;17.226;2022-08-19T11:23:51;11;11;10
44871;PMS7003;30602;51.060;17.226;2022-08-19T11:27:40;12;11;10
44871;PMS7003;30602;51.060;17.226;2022-08-19T11:32:11;11;11;9
44871;PMS7003;30602;51.060;17.226;2022-08-19T11:35:22;11;10;9
44871;PMS7003;30602;51.060;17.226;2022-08-19T11:39:06;11;11;8
44871;PMS7003;30602;51.060;17.226;2022-08-19T11:42:19;8;8;7
44871;PMS7003;30602;51.060;17.226;2022-08-19T11:45:41;8;8;6
44871;PMS7003;30602;51.060;17.226;2022-08-19T11:49:58;8;8;6
44871;PMS7003;30602;51.060;17.226;2022-08-19T11:53:11;9;8;6
44871;PMS7003;30602;51.060;17.226;2022-08-19T11:56:42;8;7;6
44871;PMS7003;30602;51.060;17.226;2022-08-19T12:00:26;8;7;6
44871;PMS7003;30602;51.060;17.226;2022-08-19T12:03:48;7;6;5
44871;PMS7003;30602;51.060;17.226;2022-08-19T12:07:23;7;7;7
44871;PMS7003;30602;51.060;17.226;2022-08-19T12:11:03;9;7;6
44871;PMS7003;30602;51.060;17.226;2022-08-19T12:15:00;6;6;5
44871;PMS7003;30602;51.060;17.226;2022-08-19T12:18:31;7;7;6
44871;PMS7003;30602;51.060;17.226;2022-08-19T12:21:43;7;7;5
44871;PMS7003;30602;51.060;17.226;2022-08-19T12:25:14;7;6;5
44871;PMS7003;30602;51.060;17.226;2022-08-19T12:28:41;6;6;5
44871;PMS7003;30602;51.060;17.226;2022-08-19T12:32:26;6;6;5
44871;PMS7003;30602;51.060;17.226;2022-08-19T12:35:59;7;6;6
44871;PMS7003;30602;51.060;17.226;2022-08-19T12:39:39;7;7;6
44871;PMS7003;30602;51.060;17.226;2022-08-19T12:43:42;7;7;6
44871;PMS7003;30602;51.060;17.226;2022-08-19T12:46:51;7;7;6
44871;PMS7003;30602;51.060;17.226;2022-08-19T12:50:04;8;7;6
44871;PMS7003;30602;51.060;17.226;2022-08-19T12:53:39;9;7;6
44871;PMS7003;30602;51.060;17.226;2022-08-19T12:57:10;7;6;5
44871;PMS7003;30602;51.060;17.226;2022-08-19T13:00:51;7;6;5
44871;PMS7003;30602;51.060;17.226;2022-08-19T13:04:20;7;6;5
44871;PMS7003;30602;51.060;17.226;2022-08-19T13:07:51;8;5;4
44871;PMS7003;30602;51.060;17.226;2022-08-19T13:11:11;7;6;5
44871;PMS7003;30602;51.060;17.226;2022-08-19T13:14:22;5;5;5
44871;PMS7003;30602;51.060;17.226;2022-08-19T13:17:30;5;5;4
44871;PMS7003;30602;51.060;17.226;2022-08-19T13:21:02;7;6;5
44871;PMS7003;30602;51.060;17.226;2022-08-19T13:24:39;7;6;6
44871;PMS7003;30602;51.060;17.226;2022-08-19T13:28:07;8;6;6
44871;PMS7003;30602;51.060;17.226;2022-08-19T13:31:17;5;5;5
44871;PMS7003;30602;51.060;17.226;2022-08-19T13:35:23;5;5;4
44871;PMS7003;30602;51.060;17.226;2022-08-19T13:38:55;6;6;5
44871;PMS7003;30602;51.060;17.226;2022-08-19T13:42:39;6;5;4
44871;PMS7003;30602;51.060;17.226;2022-08-19T13:46:15;7;6;5
44871;PMS7003;30602;51.060;17.226;2022-08-19T13:49:27;6;5;5
44871;PMS7003;30602;51.060;17.226;2022-08-19T13:52:42;10;6;5
44871;PMS7003;30602;51.060;17.226;2022-08-19T13:57:00;5;5;4
44871;PMS7003;30602;51.060;17.226;2022-08-19T14:00:25;7;5;4
44871;PMS7003;30602;51.060;17.226;2022-08-19T14:03:55;7;6;5
44871;PMS7003;30602;51.060;17.226;2022-08-19T14:07:28;5;5;4
44871;PMS7003;30602;51.060;17.226;2022-08-19T14:10:56;6;6;5
44871;PMS7003;30602;51.060;17.226;2022-08-19T14:14:06;7;5;4
44871;PMS7003;30602;51.060;17.226;2022-08-19T14:17:13;5;5;4
44871;PMS7003;30602;51.060;17.226;2022-08-19T14:20:27;10;8;7
44871;PMS7003;30602;51.060;17.226;2022-08-19T14:24:18;5;5;5
44871;PMS7003;30602;51.060;17.226;2022-08-19T14:27:48;8;7;6
44871;PMS7003;30602;51.060;17.226;2022-08-19T14:31:19;8;7;6
44871;PMS7003;30602;51.060;17.226;2022-08-19T14:35:16;8;6;5
44871;PMS7003;30602;51.060;17.226;2022-08-19T14:38:24;6;6;5
44871;PMS7003;30602;51.060;17.226;2022-08-19T14:42:32;7;6;5
44871;PMS7003;30602;51.060;17.226;2022-08-19T14:45:44;7;6;5
44871;PMS7003;30602;51.060;17.226;2022-08-19T14:49:49;6;6;5
44871;PMS7003;30602;51.060;17.226;2022-08-19T14:57:14;7;6;6
44871;PMS7003;30602;51.060;17.226;2022-08-19T15:00:59;8;6;5
44871;PMS7003;30602;51.060;17.226;2022-08-19T15:04:12;8;6;5
44871;PMS7003;30602;51.060;17.226;2022-08-19T15:07:42;7;6;5
44871;PMS7003;30602;51.060;17.226;2022-08-19T15:11:14;8;7;6
44871;PMS7003;30602;51.060;17.226;2022-08-19T15:14:42;7;6;5
44871;PMS7003;30602;51.060;17.226;2022-08-19T15:17:59;6;5;4
44871;PMS7003;30602;51.060;17.226;2022-08-19T15:21:20;9;7;6
44871;PMS7003;30602;51.060;17.226;2022-08-19T15:25:18;5;5;4
44871;PMS7003;30602;51.060;17.226;2022-08-19T15:28:25;6;6;5
44871;PMS7003;30602;51.060;17.226;2022-08-19T15:31:53;9;6;5
44871;PMS7003;30602;51.060;17.226;2022-08-19T15:35:34;8;6;5
44871;PMS7003;30602;51.060;17.226;2022-08-19T15:39:06;7;5;5
44871;PMS7003;30602;51.060;17.226;2022-08-19T15:42:37;9;7;6
44871;PMS7003;30602;51.060;17.226;2022-08-19T15:45:47;9;8;7
44871;PMS7003;30602;51.060;17.226;2022-08-19T15:49:16;10;8;7
44871;PMS7003;30602;51.060;17.226;2022-08-19T15:53:12;10;9;8
44871;PMS7003;30602;51.060;17.226;2022-08-19T15:56:54;12;10;8
44871;PMS7003;30602;51.060;17.226;2022-08-19T16:00:26;9;9;8
44871;PMS7003;30602;51.060;17.226;2022-08-19T16:04:18;11;10;8
44871;PMS7003;30602;51.060;17.226;2022-08-19T16:07:53;13;12;10
44871;PMS7003;30602;51.060;17.226;2022-08-19T16:16:13;13;12;10
44871;PMS7003;30602;51.060;17.226;2022-08-19T16:19:42;16;15;12
44871;PMS7003;30602;51.060;17.226;2022-08-19T16:22:59;17;14;12
44871;PMS7003;30602;51.060;17.226;2022-08-19T16:26:31;19;15;13
44871;PMS7003;30602;51.060;17.226;2022-08-19T16:29:44;20;19;15
44871;PMS7003;30602;51.060;17.226;2022-08-19T16:32:52;21;19;15
44871;PMS7003;30602;51.060;17.226;2022-08-19T16:36:06;22;21;17
44871;PMS7003;30602;51.060;17.226;2022-08-19T16:39:39;21;20;17
44871;PMS7003;30602;51.060;17.226;2022-08-19T16:47:36;28;27;20
44871;PMS7003;30602;51.060;17.226;2022-08-19T16:50:48;26;25;20
44871;PMS7003;30602;51.060;17.226;2022-08-19T16:54:15;24;23;19
44871;PMS7003;30602;51.060;17.226;2022-08-19T16:57:47;26;25;18
44871;PMS7003;30602;51.060;17.226;2022-08-19T17:01:01;28;27;20
44871;PMS7003;30602;51.060;17.226;2022-08-19T17:04:43;27;24;19
44871;PMS7003;30602;51.060;17.226;2022-08-19T17:08:31;32;29;21
44871;PMS7003;30602;51.060;17.226;2022-08-19T17:12:19;33;31;21
44871;PMS7003;30602;51.060;17.226;2022-08-19T17:15:30;26;26;19
44871;PMS7003;30602;51.060;17.226;2022-08-19T17:18:56;30;27;20
44871;PMS7003;30602;51.060;17.226;2022-08-19T17:22:42;30;26;19
44871;PMS7003;30602;51.060;17.226;2022-08-19T17:25:52;29;28;22
44871;PMS7003;30602;51.060;17.226;2022-08-19T17:29:01;34;29;21
44871;PMS7003;30602;51.060;17.226;2022-08-19T17:32:15;34;30;22
44871;PMS7003;30602;51.060;17.226;2022-08-19T17:36:25;33;29;21
44871;PMS7003;30602;51.060;17.226;2022-08-19T17:39:48;35;29;21
44871;PMS7003;30602;51.060;17.226;2022-08-19T17:43:15;35;31;21
44871;PMS7003;30602;51.060;17.226;2022-08-19T17:46:55;32;29;21
44871;PMS7003;30602;51.060;17.226;2022-08-19T17:50:24;36;31;22
44871;PMS7003;30602;51.060;17.226;2022-08-19T17:53:58;32;29;21
44871;PMS7003;30602;51.060;17.226;2022-08-19T17:57:50;36;30;22
44871;PMS7003;30602;51.060;17.226;2022-08-19T18:01:26;34;30;21
44871;PMS7003;30602;51.060;17.226;2022-08-19T18:04:59;31;28;21
44871;PMS7003;30602;51.060;17.226;2022-08-19T18:08:14;33;30;21
44871;PMS7003;30602;51.060;17.226;2022-08-19T18:11:53;39;32;22
44871;PMS7003;30602;51.060;17.226;2022-08-19T18:15:20;35;30;22
44871;PMS7003;30602;51.060;17.226;2022-08-19T18:18:47;38;32;23
44871;PMS7003;30602;51.060;17.226;2022-08-19T18:22:28;41;34;24
44871;PMS7003;30602;51.060;17.226;2022-08-19T18:26:32;38;32;22
44871;PMS7003;30602;51.060;17.226;2022-08-19T18:29:43;39;33;24
44871;PMS7003;30602;51.060;17.226;2022-08-19T18:32:58;43;37;26
44871;PMS7003;30602;51.060;17.226;2022-08-19T18:36:17;54;43;30
44871;PMS7003;30602;51.060;17.226;2022-08-19T18:39:58;46;39;27
44871;PMS7003;30602;51.060;17.226;2022-08-19T18:43:21;39;33;25
44871;PMS7003;30602;51.060;17.226;2022-08-19T18:47:06;38;33;23
44871;PMS7003;30602;51.060;17.226;2022-08-19T18:50:24;34;31;23
44871;PMS7003;30602;51.060;17.226;2022-08-19T18:54:16;37;32;23
44871;PMS7003;30602;51.060;17.226;2022-08-19T18:57:48;39;33;23
44871;PMS7003;30602;51.060;17.226;2022-08-19T19:01:41;35;32;21
44871;PMS7003;30602;51.060;17.226;2022-08-19T19:05:16;28;26;20
44871;PMS7003;30602;51.060;17.226;2022-08-19T19:08:49;24;23;18
44871;PMS7003;30602;51.060;17.226;2022-08-19T19:12:04;22;21;18
44871;PMS7003;30602;51.060;17.226;2022-08-19T19:15:30;25;20;16
44871;PMS7003;30602;51.060;17.226;2022-08-19T19:18:53;17;16;14
44871;PMS7003;30602;51.060;17.226;2022-08-19T19:22:15;20;16;14
44871;PMS7003;30602;51.060;17.226;2022-08-19T19:26:11;16;16;13
44871;PMS7003;30602;51.060;17.226;2022-08-19T19:29:39;18;17;13
44871;PMS7003;30602;51.060;17.226;2022-08-19T19:33:26;19;17;14
44871;PMS7003;30602;51.060;17.226;2022-08-19T19:37:00;18;17;14
44871;PMS7003;30602;51.060;17.226;2022-08-19T19:40:24;18;17;13
44871;PMS7003;30602;51.060;17.226;2022-08-19T19:44:05;19;17;13
44871;PMS7003;30602;51.060;17.226;2022-08-19T19:47:24;21;18;13
44871;PMS7003;30602;51.060;17.226;2022-08-19T19:50:45;17;15;13
44871;PMS7003;30602;51.060;17.226;2022-08-19T19:54:11;21;20;17
44871;PMS7003;30602;51.060;17.226;2022-08-19T19:57:21;24;21;15
44871;PMS7003;30602;51.060;17.226;2022-08-19T20:00:51;23;20;16
44871;PMS7003;30602;51.060;17.226;2022-08-19T20:04:01;16;14;12
44871;PMS7003;30602;51.060;17.226;2022-08-19T20:07:13;16;14;12
44871;PMS7003;30602;51.060;17.226;2022-08-19T20:10:25;15;14;12
44871;PMS7003;30602;51.060;17.226;2022-08-19T20:13:36;16;16;12
44871;PMS7003;30602;51.060;17.226;2022-08-19T20:17:51;17;17;13
44871;PMS7003;30602;51.060;17.226;2022-08-19T20:21:00;17;17;14
44871;PMS7003;30602;51.060;17.226;2022-08-19T20:24:43;17;15;12
44871;PMS7003;30602;51.060;17.226;2022-08-19T20:28:25;18;17;13
44871;PMS7003;30602;51.060;17.226;2022-08-19T20:31:37;20;18;14
44871;PMS7003;30602;51.060;17.226;2022-08-19T20:35:06;16;16;13
44871;PMS7003;30602;51.060;17.226;2022-08-19T20:38:35;20;19;14
44871;PMS7003;30602;51.060;17.226;2022-08-19T20:41:48;19;17;12
44871;PMS7003;30602;51.060;17.226;2022-08-19T20:45:25;23;21;16
44871;PMS7003;30602;51.060;17.226;2022-08-19T20:48:57;20;16;13
44871;PMS7003;30602;51.060;17.226;2022-08-19T20:52:05;21;19;15
44871;PMS7003;30602;51.060;17.226;2022-08-19T20:55:14;21;17;14
44871;PMS7003;30602;51.060;17.226;2022-08-19T20:58:24;17;16;13
44871;PMS7003;30602;51.060;17.226;2022-08-19T21:01:56;19;16;13
44871;PMS7003;30602;51.060;17.226;2022-08-19T21:05:04;20;19;15
44871;PMS7003;30602;51.060;17.226;2022-08-19T21:08:49;18;16;13
44871;PMS7003;30602;51.060;17.226;2022-08-19T21:12:10;19;17;15
44871;PMS7003;30602;51.060;17.226;2022-08-19T21:15:43;22;17;13
44871;PMS7003;30602;51.060;17.226;2022-08-19T21:18:52;18;17;13
44871;PMS7003;30602;51.060;17.226;2022-08-19T21:22:14;20;16;13
44871;PMS7003;30602;51.060;17.226;2022-08-19T21:26:13;21;18;14
44871;PMS7003;30602;51.060;17.226;2022-08-19T21:29:54;21;19;14
44871;PMS7003;30602;51.060;17.226;2022-08-19T21:33:28;22;22;16
44871;PMS7003;30602;51.060;17.226;2022-08-19T21:37:02;21;20;15
44871;PMS7003;30602;51.060;17.226;2022-08-19T21:40:32;20;18;14
44871;PMS7003;30602;51.060;17.226;2022-08-19T21:44:15;24;20;15
44871;PMS7003;30602;51.060;17.226;2022-08-19T21:48:25;24;21;15
44871;PMS7003;30602;51.060;17.226;2022-08-19T21:51:36;29;22;16
44871;PMS7003;30602;51.060;17.226;2022-08-19T21:55:07;23;19;15
44871;PMS7003;30602;51.060;17.226;2022-08-19T21:58:21;21;19;15
44871;PMS7003;30602;51.060;17.226;2022-08-19T22:01:30;20;19;15
44871;PMS7003;30602;51.060;17.226;2022-08-19T22:05:01;24;19;15
44871;PMS7003;30602;51.060;17.226;2022-08-19T22:08:23;22;21;16
44871;PMS7003;30602;51.060;17.226;2022-08-19T22:12:20;22;21;16
44871;PMS7003;30602;51.060;17.226;2022-08-19T22:15:41;23;20;16
44871;PMS7003;30602;51.060;17.226;2022-08-19T22:19:09;22;20;16
44871;PMS7003;30602;51.060;17.226;2022-08-19T22:22:52;21;18;14
44871;PMS7003;30602;51.060;17.226;2022-08-19T22:26:22;20;19;16
44871;PMS7003;30602;51.060;17.226;2022-08-19T22:29:52;24;21;16
44871;PMS7003;30602;51.060;17.226;2022-08-19T22:33:05;28;23;18
44871;PMS7003;30602;51.060;17.226;2022-08-19T22:36:39;33;24;18
44871;PMS7003;30602;51.060;17.226;2022-08-19T22:39:59;22;19;15
44871;PMS7003;30602;51.060;17.226;2022-08-19T22:43:42;19;19;14
44871;PMS7003;30602;51.060;17.226;2022-08-19T22:48:03;18;17;14
44871;PMS7003;30602;51.060;17.226;2022-08-19T22:51:33;20;19;15
44871;PMS7003;30602;51.060;17.226;2022-08-19T22:54:55;21;20;16
44871;PMS7003;30602;51.060;17.226;2022-08-19T22:58:49;23;20;15
44871;PMS7003;30602;51.060;17.226;2022-08-19T23:02:10;21;18;15
44871;PMS7003;30602;51.060;17.226;2022-08-19T23:05:34;23;20;15
44871;PMS7003;30602;51.060;17.226;2022-08-19T23:09:26;20;19;16
44871;PMS7003;30602;51.060;17.226;2022-08-19T23:12:49;23;20;15
44871;PMS7003;30602;51.060;17.226;2022-08-19T23:15:59;23;21;16
44871;PMS7003;30602;51.060;17.226;2022-08-19T23:19:40;23;19;16
44871;PMS7003;30602;51.060;17.226;2022-08-19T23:22:55;23;23;16